createdAt,value
2016-09-28T00:00:37.261Z,0
2016-09-28T00:01:37.215Z,0
2016-09-28T00:02:37.493Z,0
2016-09-28T00:03:37.452Z,0
2016-09-28T00:04:37.413Z,0
2016-09-28T00:05:37.381Z,0
2016-09-28T00:06:37.042Z,0
2016-09-28T00:07:37.004Z,0
2016-09-28T00:08:36.974Z,0
2016-09-28T00:09:36.634Z,0
2016-09-28T00:10:37.199Z,0
2016-09-28T00:11:37.166Z,0
2016-09-28T00:12:36.832Z,0
2016-09-28T00:13:36.810Z,0
2016-09-28T00:14:37.057Z,0
2016-09-28T00:15:37.024Z,0
2016-09-28T00:16:36.681Z,0
2016-09-28T00:17:36.950Z,0
2016-09-28T00:18:36.912Z,0
2016-09-28T00:19:36.576Z,0
2016-09-28T00:20:36.854Z,0
2016-09-28T00:21:36.808Z,0
2016-09-28T00:22:36.466Z,0
2016-09-28T00:23:36.733Z,0
2016-09-28T00:24:36.400Z,0
2016-09-28T00:25:36.360Z,0
2016-09-28T00:26:36.628Z,0
2016-09-28T00:27:36.295Z,0
2016-09-28T00:28:36.547Z,0
2016-09-28T00:29:36.534Z,0
2016-09-28T00:30:36.186Z,0
2016-09-28T00:31:36.140Z,0
2016-09-28T00:32:36.414Z,0
2016-09-28T00:33:35.766Z,0
2016-09-28T00:34:36.049Z,0
2016-09-28T00:35:36.310Z,0
2016-09-28T00:36:36.269Z,0
2016-09-28T00:37:35.925Z,0
2016-09-28T00:38:35.889Z,0
2016-09-28T00:39:36.163Z,0
2016-09-28T00:40:36.131Z,0
2016-09-28T00:41:35.477Z,0
2016-09-28T00:42:36.058Z,0
2016-09-28T00:43:36.015Z,0
2016-09-28T00:44:35.388Z,0
2016-09-28T00:45:35.341Z,0
2016-09-28T00:46:35.907Z,0
2016-09-28T00:47:35.572Z,0
2016-09-28T00:48:35.835Z,0
2016-09-28T00:49:35.495Z,0
2016-09-28T00:50:35.765Z,0
2016-09-28T00:51:35.433Z,0
2016-09-28T00:52:35.391Z,0
2016-09-28T00:53:35.656Z,0
2016-09-28T00:54:35.321Z,0
2016-09-28T00:55:35.282Z,0
2016-09-28T00:56:34.943Z,0
2016-09-28T00:57:35.508Z,0
2016-09-28T00:58:35.489Z,0
2016-09-28T00:59:35.435Z,0
2016-09-28T01:00:35.484Z,0
2016-09-28T01:01:35.370Z,0
2016-09-28T01:02:35.025Z,0
2016-09-28T01:03:34.686Z,0
2016-09-28T01:04:35.255Z,0
2016-09-28T01:05:35.218Z,0
2016-09-28T01:06:34.884Z,0
2016-09-28T01:07:34.845Z,0
2016-09-28T01:08:35.118Z,0
2016-09-28T01:09:35.088Z,0
2016-09-28T01:10:35.032Z,0
2016-09-28T01:11:35.002Z,0
2016-09-28T01:12:34.666Z,0
2016-09-28T01:13:34.626Z,0
2016-09-28T01:14:34.892Z,0
2016-09-28T01:15:34.856Z,0
2016-09-28T01:16:34.544Z,0
2016-09-28T01:17:34.181Z,0
2016-09-28T01:18:34.751Z,0
2016-09-28T01:19:34.712Z,0
2016-09-28T01:20:34.681Z,0
2016-09-28T01:21:34.638Z,0
2016-09-28T01:22:34.307Z,0
2016-09-28T01:23:34.270Z,0
2016-09-28T01:24:34.227Z,0
2016-09-28T01:25:34.499Z,0
2016-09-28T01:26:34.154Z,0
2016-09-28T01:27:34.422Z,0
2016-09-28T01:28:34.089Z,0
2016-09-28T01:29:34.350Z,0
2016-09-28T01:30:34.317Z,0
2016-09-28T01:31:33.973Z,0
2016-09-28T01:32:34.241Z,0
2016-09-28T01:33:34.207Z,0
2016-09-28T01:34:34.162Z,0
2016-09-28T01:35:34.130Z,0
2016-09-28T01:36:34.099Z,0
2016-09-28T01:37:34.060Z,0
2016-09-28T01:38:33.722Z,0
2016-09-28T01:39:33.987Z,0
2016-09-28T01:40:33.653Z,0
2016-09-28T01:41:33.927Z,0
2016-09-28T01:42:33.578Z,0
2016-09-28T01:43:33.544Z,0
2016-09-28T01:44:33.803Z,0
2016-09-28T01:45:33.773Z,0
2016-09-28T01:46:33.731Z,0
2016-09-28T01:47:32.793Z,0
2016-09-28T01:48:33.666Z,0
2016-09-28T01:49:33.623Z,0
2016-09-28T01:50:33.289Z,0
2016-09-28T01:51:33.554Z,0
2016-09-28T01:52:33.551Z,0
2016-09-28T01:53:33.501Z,0
2016-09-28T01:54:33.442Z,0
2016-09-28T01:55:33.411Z,0
2016-09-28T01:56:33.068Z,0
2016-09-28T01:57:33.040Z,0
2016-09-28T01:58:33.302Z,0
2016-09-28T01:59:32.958Z,0
2016-09-28T02:00:33.225Z,0
2016-09-28T02:01:32.282Z,0
2016-09-28T02:02:33.148Z,0
2016-09-28T02:03:32.811Z,0
2016-09-28T02:04:33.078Z,0
2016-09-28T02:05:32.735Z,0
2016-09-28T02:06:32.098Z,0
2016-09-28T02:07:32.971Z,0
2016-09-28T02:08:32.926Z,0
2016-09-28T02:09:32.594Z,0
2016-09-28T02:10:32.565Z,0
2016-09-28T02:11:32.528Z,0
2016-09-28T02:12:32.790Z,0
2016-09-28T02:13:32.764Z,0
2016-09-28T02:14:32.720Z,0
2016-09-28T02:15:32.374Z,0
2016-09-28T02:16:32.638Z,0
2016-09-28T02:17:32.614Z,0
2016-09-28T02:18:32.268Z,0
2016-09-28T02:19:32.236Z,0
2016-09-28T02:20:32.497Z,0
2016-09-28T02:21:32.160Z,0
2016-09-28T02:22:32.121Z,0
2016-09-28T02:23:32.384Z,0
2016-09-28T02:24:32.043Z,0
2016-09-28T02:25:32.313Z,0
2016-09-28T02:26:32.280Z,0
2016-09-28T02:27:32.241Z,0
2016-09-28T02:28:32.204Z,0
2016-09-28T02:29:31.868Z,0
2016-09-28T02:30:31.529Z,0
2016-09-28T02:31:31.799Z,0
2016-09-28T02:32:32.058Z,0
2016-09-28T02:33:32.025Z,0
2016-09-28T02:34:31.985Z,0
2016-09-28T02:35:31.950Z,0
2016-09-28T02:36:31.619Z,0
2016-09-28T02:37:31.870Z,0
2016-09-28T02:38:31.544Z,0
2016-09-28T02:39:31.800Z,0
2016-09-28T02:40:31.158Z,0
2016-09-28T02:41:31.728Z,0
2016-09-28T02:42:31.090Z,0
2016-09-28T02:43:31.658Z,0
2016-09-28T02:44:31.319Z,0
2016-09-28T02:45:31.279Z,0
2016-09-28T02:46:31.551Z,0
2016-09-28T02:47:30.914Z,0
2016-09-28T02:48:31.171Z,0
2016-09-28T02:49:31.440Z,0
2016-09-28T02:50:31.122Z,0
2016-09-28T02:51:31.365Z,0
2016-09-28T02:52:31.332Z,0
2016-09-28T02:53:30.990Z,0
2016-09-28T02:54:31.285Z,0
2016-09-28T02:55:30.920Z,0
2016-09-28T02:56:31.187Z,0
2016-09-28T02:57:31.147Z,0
2016-09-28T02:58:30.810Z,0
2016-09-28T02:59:30.462Z,0
2016-09-28T03:00:30.437Z,0
2016-09-28T03:01:30.999Z,0
2016-09-28T03:02:30.663Z,0
2016-09-28T03:03:30.932Z,0
2016-09-28T03:04:30.591Z,0
2016-09-28T03:05:30.551Z,0
2016-09-28T03:06:30.821Z,0
2016-09-28T03:07:29.876Z,0
2016-09-28T03:08:30.459Z,0
2016-09-28T03:09:30.110Z,0
2016-09-28T03:10:30.369Z,0
2016-09-28T03:11:30.031Z,0
2016-09-28T03:12:30.314Z,0
2016-09-28T03:13:30.268Z,0
2016-09-28T03:14:30.232Z,0
2016-09-28T03:15:29.588Z,0
2016-09-28T03:16:29.859Z,0
2016-09-28T03:17:29.816Z,0
2016-09-28T03:18:29.789Z,0
2016-09-28T03:19:30.050Z,0
2016-09-28T03:20:30.023Z,0
2016-09-28T03:21:29.985Z,0
2016-09-28T03:22:30.235Z,0
2016-09-28T03:23:30.208Z,0
2016-09-28T03:24:29.557Z,0
2016-09-28T03:25:29.838Z,0
2016-09-28T03:26:29.478Z,0
2016-09-28T03:27:29.744Z,0
2016-09-28T03:28:29.712Z,0
2016-09-28T03:29:29.676Z,0
2016-09-28T03:30:29.935Z,0
2016-09-28T03:31:29.612Z,0
2016-09-28T03:32:29.266Z,0
2016-09-28T03:33:29.544Z,0
2016-09-28T03:34:29.507Z,0
2016-09-28T03:35:29.756Z,0
2016-09-28T03:36:28.831Z,0
2016-09-28T03:37:29.689Z,0
2016-09-28T03:38:29.354Z,0
2016-09-28T03:39:29.617Z,0
2016-09-28T03:40:29.579Z,0
2016-09-28T03:41:29.539Z,0
2016-09-28T03:42:29.204Z,0
2016-09-28T03:43:29.470Z,0
2016-09-28T03:44:29.435Z,0
2016-09-28T03:45:29.106Z,0
2016-09-28T03:46:29.360Z,0
2016-09-28T03:47:29.017Z,0
2016-09-28T03:48:29.293Z,0
2016-09-28T03:49:29.251Z,0
2016-09-28T03:50:29.216Z,0
2016-09-28T03:51:28.877Z,0
2016-09-28T03:52:28.848Z,0
2016-09-28T03:53:28.806Z,0
2016-09-28T03:54:28.767Z,0
2016-09-28T03:55:29.050Z,0
2016-09-28T03:56:28.999Z,0
2016-09-28T03:57:28.965Z,0
2016-09-28T03:58:28.923Z,0
2016-09-28T03:59:28.897Z,0
2016-09-28T04:00:28.852Z,0
2016-09-28T04:01:28.824Z,0
2016-09-28T04:02:28.784Z,0
2016-09-28T04:03:28.752Z,0
2016-09-28T04:04:28.409Z,0
2016-09-28T04:05:28.682Z,0
2016-09-28T04:06:28.638Z,0
2016-09-28T04:07:28.015Z,0
2016-09-28T04:08:28.570Z,0
2016-09-28T04:09:27.932Z,0
2016-09-28T04:10:28.500Z,0
2016-09-28T04:11:27.862Z,0
2016-09-28T04:12:28.124Z,0
2016-09-28T04:13:28.395Z,0
2016-09-28T04:14:28.360Z,0
2016-09-28T04:15:28.318Z,0
2016-09-28T04:16:28.287Z,0
2016-09-28T04:17:28.253Z,0
2016-09-28T04:18:27.913Z,0
2016-09-28T04:19:27.877Z,0
2016-09-28T04:20:27.844Z,0
2016-09-28T04:21:27.817Z,0
2016-09-28T04:22:28.073Z,0
2016-09-28T04:23:27.737Z,0
2016-09-28T04:24:28.004Z,0
2016-09-28T04:25:27.690Z,0
2016-09-28T04:26:27.932Z,0
2016-09-28T04:27:27.591Z,0
2016-09-28T04:28:27.862Z,0
2016-09-28T04:29:27.824Z,0
2016-09-28T04:30:27.486Z,0
2016-09-28T04:31:27.453Z,0
2016-09-28T04:32:27.120Z,0
2016-09-28T04:33:27.381Z,0
2016-09-28T04:34:27.350Z,0
2016-09-28T04:35:27.621Z,0
2016-09-28T04:36:27.274Z,0
2016-09-28T04:37:27.235Z,0
2016-09-28T04:38:27.205Z,0
2016-09-28T04:39:27.480Z,0
2016-09-28T04:40:26.832Z,0
2016-09-28T04:41:27.401Z,0
2016-09-28T04:42:27.365Z,0
2016-09-28T04:43:27.342Z,0
2016-09-28T04:44:27.295Z,0
2016-09-28T04:45:27.262Z,0
2016-09-28T04:46:27.223Z,0
2016-09-28T04:47:27.188Z,0
2016-09-28T04:48:27.158Z,0
2016-09-28T04:49:27.127Z,0
2016-09-28T04:50:26.482Z,0
2016-09-28T04:51:27.056Z,0
2016-09-28T04:52:26.739Z,4
2016-09-28T04:53:26.680Z,0
2016-09-28T04:54:26.941Z,0
2016-09-28T04:55:26.918Z,4
2016-09-28T04:56:26.570Z,4
2016-09-28T04:57:26.847Z,4
2016-09-28T04:58:26.807Z,4
2016-09-28T04:59:26.466Z,4
2016-09-28T05:00:26.435Z,8
2016-09-28T05:01:26.400Z,8
2016-09-28T05:02:26.371Z,12
2016-09-28T05:03:26.629Z,16
2016-09-28T05:04:26.593Z,20
2016-09-28T05:05:25.953Z,24
2016-09-28T05:06:26.226Z,24
2016-09-28T05:07:26.488Z,28
2016-09-28T05:08:26.150Z,32
2016-09-28T05:09:26.125Z,36
2016-09-28T05:10:26.390Z,40
2016-09-28T05:11:25.738Z,48
2016-09-28T05:12:26.009Z,56
2016-09-28T05:13:25.977Z,64
2016-09-28T05:14:25.949Z,68
2016-09-28T05:15:25.912Z,76
2016-09-28T05:16:25.896Z,84
2016-09-28T05:17:25.532Z,92
2016-09-28T05:18:26.099Z,100
2016-09-28T05:19:25.763Z,108
2016-09-28T05:20:26.032Z,120
2016-09-28T05:21:25.999Z,132
2016-09-28T05:22:25.966Z,148
2016-09-28T05:23:25.931Z,160
2016-09-28T05:24:25.895Z,168
2016-09-28T05:25:25.863Z,180
2016-09-28T05:26:25.819Z,196
2016-09-28T05:27:25.183Z,208
2016-09-28T05:28:25.452Z,236
2016-09-28T05:29:25.412Z,252
2016-09-28T05:30:25.079Z,264
2016-09-28T05:31:25.648Z,272
2016-09-28T05:32:25.308Z,284
2016-09-28T05:33:25.279Z,292
2016-09-28T05:34:25.550Z,308
2016-09-28T05:35:25.513Z,328
2016-09-28T05:36:25.469Z,348
2016-09-28T05:37:24.831Z,372
2016-09-28T05:38:25.400Z,404
2016-09-28T05:39:24.764Z,436
2016-09-28T05:40:25.331Z,484
2016-09-28T05:41:25.296Z,528
2016-09-28T05:42:25.260Z,576
2016-09-28T05:43:24.929Z,596
2016-09-28T05:44:25.191Z,612
2016-09-28T05:45:25.157Z,668
2016-09-28T05:46:25.126Z,700
2016-09-28T05:47:25.080Z,708
2016-09-28T05:48:24.751Z,744
2016-09-28T05:49:24.728Z,776
2016-09-28T05:50:24.386Z,804
2016-09-28T05:51:24.955Z,888
2016-09-28T05:52:24.911Z,1044
2016-09-28T05:53:24.877Z,1100
2016-09-28T05:54:24.849Z,1124
2016-09-28T05:55:24.809Z,1104
2016-09-28T05:56:24.779Z,1144
2016-09-28T05:57:24.449Z,1176
2016-09-28T05:58:24.396Z,1208
2016-09-28T05:59:24.666Z,1232
2016-09-28T06:00:24.330Z,1332
2016-09-28T06:01:24.603Z,1356
2016-09-28T06:02:24.267Z,1424
2016-09-28T06:03:23.924Z,1488
2016-09-28T06:04:24.189Z,1496
2016-09-28T06:05:24.478Z,1456
2016-09-28T06:06:24.122Z,1460
2016-09-28T06:07:23.792Z,1516
2016-09-28T06:08:23.754Z,1560
2016-09-28T06:09:24.323Z,1568
2016-09-28T06:10:23.987Z,1668
2016-09-28T06:11:24.255Z,1800
2016-09-28T06:12:24.222Z,1788
2016-09-28T06:13:23.887Z,1732
2016-09-28T06:14:24.157Z,1740
2016-09-28T06:15:23.812Z,1736
2016-09-28T06:16:23.478Z,1712
2016-09-28T06:17:24.054Z,1696
2016-09-28T06:18:24.013Z,1700
2016-09-28T06:19:23.688Z,1744
2016-09-28T06:20:23.343Z,1736
2016-09-28T06:21:23.915Z,1760
2016-09-28T06:22:22.975Z,1772
2016-09-28T06:23:23.544Z,1888
2016-09-28T06:24:23.501Z,2052
2016-09-28T06:25:23.474Z,2088
2016-09-28T06:26:23.435Z,1900
2016-09-28T06:27:23.111Z,1784
2016-09-28T06:28:23.673Z,1668
2016-09-28T06:29:23.031Z,1564
2016-09-28T06:30:23.609Z,1632
2016-09-28T06:31:23.566Z,1764
2016-09-28T06:32:23.533Z,1916
2016-09-28T06:33:23.502Z,1924
2016-09-28T06:34:23.168Z,1916
2016-09-28T06:35:23.429Z,2012
2016-09-28T06:36:23.097Z,2136
2016-09-28T06:37:23.383Z,2300
2016-09-28T06:38:22.727Z,2388
2016-09-28T06:39:23.295Z,2428
2016-09-28T06:40:22.970Z,2480
2016-09-28T06:41:23.233Z,2336
2016-09-28T06:42:22.598Z,2228
2016-09-28T06:43:23.172Z,2312
2016-09-28T06:44:22.829Z,2356
2016-09-28T06:45:22.489Z,2680
2016-09-28T06:46:23.058Z,2696
2016-09-28T06:47:23.024Z,2692
2016-09-28T06:48:22.699Z,2636
2016-09-28T06:49:22.958Z,2508
2016-09-28T06:50:22.316Z,2656
2016-09-28T06:51:22.590Z,2708
2016-09-28T06:52:22.858Z,2636
2016-09-28T06:53:22.218Z,2816
2016-09-28T06:54:22.486Z,3272
2016-09-28T06:55:22.457Z,3856
2016-09-28T06:56:22.120Z,3636
2016-09-28T06:57:22.686Z,3452
2016-09-28T06:58:22.345Z,3824
2016-09-28T06:59:22.335Z,3680
2016-09-28T07:00:22.593Z,3948
2016-09-28T07:01:22.552Z,4268
2016-09-28T07:02:22.528Z,4512
2016-09-28T07:03:22.182Z,4352
2016-09-28T07:04:22.152Z,4072
2016-09-28T07:05:22.422Z,4004
2016-09-28T07:06:22.390Z,3964
2016-09-28T07:07:21.753Z,3756
2016-09-28T07:08:22.322Z,3976
2016-09-28T07:09:22.288Z,4400
2016-09-28T07:10:22.252Z,4272
2016-09-28T07:11:21.929Z,4176
2016-09-28T07:12:22.194Z,4292
2016-09-28T07:13:21.849Z,3988
2016-09-28T07:14:21.819Z,4232
2016-09-28T07:15:21.783Z,4264
2016-09-28T07:16:22.051Z,4296
2016-09-28T07:17:21.418Z,4140
2016-09-28T07:18:21.987Z,3548
2016-09-28T07:19:21.650Z,4052
2016-09-28T07:20:21.619Z,4300
2016-09-28T07:21:21.583Z,4388
2016-09-28T07:22:21.558Z,4196
2016-09-28T07:23:21.823Z,5124
2016-09-28T07:24:21.181Z,5392
2016-09-28T07:25:21.150Z,5288
2016-09-28T07:26:21.419Z,5296
2016-09-28T07:27:21.388Z,5684
2016-09-28T07:28:21.665Z,5384
2016-09-28T07:29:21.029Z,5100
2016-09-28T07:30:21.286Z,5568
2016-09-28T07:31:21.254Z,5260
2016-09-28T07:32:21.224Z,5340
2016-09-28T07:33:21.191Z,6044
2016-09-28T07:34:21.158Z,5688
2016-09-28T07:35:21.429Z,5080
2016-09-28T07:36:21.115Z,4912
2016-09-28T07:37:21.061Z,4712
2016-09-28T07:38:21.029Z,4992
2016-09-28T07:39:20.996Z,5308
2016-09-28T07:40:20.662Z,5460
2016-09-28T07:41:21.241Z,5288
2016-09-28T07:42:20.923Z,5412
2016-09-28T07:43:21.178Z,5700
2016-09-28T07:44:20.838Z,5880
2016-09-28T07:45:20.802Z,5924
2016-09-28T07:46:21.075Z,6044
2016-09-28T07:47:21.037Z,6396
2016-09-28T07:48:20.706Z,6656
2016-09-28T07:49:20.670Z,6768
2016-09-28T07:50:20.648Z,6424
2016-09-28T07:51:20.605Z,6176
2016-09-28T07:52:20.596Z,6456
2016-09-28T07:53:20.858Z,6492
2016-09-28T07:54:20.211Z,6288
2016-09-28T07:55:20.482Z,6208
2016-09-28T07:56:20.748Z,5980
2016-09-28T07:57:20.416Z,4588
2016-09-28T07:58:20.692Z,4272
2016-09-28T07:59:20.653Z,4260
2016-09-28T08:00:20.640Z,4512
2016-09-28T08:01:19.978Z,4436
2016-09-28T08:02:20.557Z,4508
2016-09-28T08:03:19.923Z,4976
2016-09-28T08:04:20.205Z,4920
2016-09-28T08:05:20.467Z,4800
2016-09-28T08:06:20.430Z,4536
2016-09-28T08:07:20.398Z,5072
2016-09-28T08:08:20.359Z,4936
2016-09-28T08:09:20.033Z,4984
2016-09-28T08:10:20.303Z,5296
2016-09-28T08:11:19.963Z,5500
2016-09-28T08:12:20.238Z,5544
2016-09-28T08:13:19.603Z,5644
2016-09-28T08:14:19.867Z,6436
2016-09-28T08:15:20.142Z,7616
2016-09-28T08:16:20.105Z,7816
2016-09-28T08:17:19.766Z,7808
2016-09-28T08:18:19.750Z,7448
2016-09-28T08:19:19.713Z,7228
2016-09-28T08:20:19.678Z,6984
2016-09-28T08:21:19.645Z,6364
2016-09-28T08:22:19.010Z,6024
2016-09-28T08:23:19.581Z,5304
2016-09-28T08:24:19.856Z,4880
2016-09-28T08:25:19.521Z,4492
2016-09-28T08:26:19.793Z,4580
2016-09-28T08:27:19.766Z,3888
2016-09-28T08:28:19.419Z,2524
2016-09-28T08:29:19.391Z,3660
2016-09-28T08:30:19.663Z,2712
2016-09-28T08:31:19.638Z,2952
2016-09-28T08:32:19.612Z,3464
2016-09-28T08:33:19.569Z,3984
2016-09-28T08:34:19.257Z,4588
2016-09-28T08:35:18.896Z,7100
2016-09-28T08:36:19.476Z,10900
2016-09-28T08:37:19.440Z,13060
2016-09-28T08:38:19.414Z,14676
2016-09-28T08:39:19.073Z,9624
2016-09-28T08:40:19.046Z,7800
2016-09-28T08:41:19.007Z,5340
2016-09-28T08:42:18.986Z,11848
2016-09-28T08:43:18.947Z,15760
2016-09-28T08:44:19.213Z,18464
2016-09-28T08:45:18.588Z,14632
2016-09-28T08:46:18.561Z,15588
2016-09-28T08:47:18.816Z,21792
2016-09-28T08:48:18.491Z,18848
2016-09-28T08:49:19.063Z,16320
2016-09-28T08:50:18.723Z,12796
2016-09-28T08:51:19.006Z,15824
2016-09-28T08:52:18.664Z,50368
2016-09-28T08:53:18.945Z,28512
2016-09-28T08:54:18.608Z,21888
2016-09-28T08:55:18.579Z,24032
2016-09-28T08:56:18.240Z,19040
2016-09-28T08:57:18.519Z,17440
2016-09-28T08:58:18.789Z,18880
2016-09-28T08:59:18.455Z,18048
2016-09-28T09:00:18.129Z,17664
2016-09-28T09:01:18.095Z,28448
2016-09-28T09:02:18.375Z,31456
2016-09-28T09:03:18.036Z,28320
2016-09-28T09:04:18.608Z,19104
2016-09-28T09:05:18.277Z,17952
2016-09-28T09:06:18.551Z,16552
2016-09-28T09:07:18.215Z,20480
2016-09-28T09:08:18.195Z,29056
2016-09-28T09:09:17.859Z,22400
2016-09-28T09:10:18.435Z,20416
2016-09-28T09:11:18.106Z,36608
2016-09-28T09:12:17.784Z,47200
2016-09-28T09:13:18.347Z,52640
2016-09-28T09:14:18.325Z,69248
2016-09-28T09:15:17.695Z,81312
2016-09-28T09:16:17.679Z,76480
2016-09-28T09:17:17.952Z,87328
2016-09-28T09:18:17.909Z,96736
2016-09-28T09:19:17.587Z,95232
2016-09-28T09:20:18.160Z,89760
2016-09-28T09:21:18.135Z,88416
2016-09-28T09:22:18.116Z,84960
2016-09-28T09:23:17.786Z,78144
2016-09-28T09:24:17.761Z,83424
2016-09-28T09:25:18.045Z,38112
2016-09-28T09:26:18.014Z,29728
2016-09-28T09:27:17.991Z,24448
2016-09-28T09:28:17.670Z,78976
2016-09-28T09:29:17.940Z,77856
2016-09-28T09:30:17.617Z,35968
2016-09-28T09:31:17.902Z,74976
2016-09-28T09:32:17.873Z,77760
2016-09-28T09:33:17.253Z,32192
2016-09-28T09:34:17.832Z,34720
2016-09-28T09:35:17.807Z,39296
2016-09-28T09:36:17.179Z,32416
2016-09-28T09:37:17.157Z,86624
2016-09-28T09:38:17.437Z,70144
2016-09-28T09:39:17.720Z,69504
2016-09-28T09:40:17.395Z,27328
2016-09-28T09:41:17.378Z,93824
2016-09-28T09:42:17.753Z,87776
2016-09-28T09:43:17.327Z,52928
2016-09-28T09:44:17.608Z,25344
2016-09-28T09:45:17.281Z,31360
2016-09-28T09:46:17.282Z,72800
2016-09-28T09:47:17.239Z,48224
2016-09-28T09:48:16.916Z,47360
2016-09-28T09:49:17.505Z,35136
2016-09-28T09:50:17.173Z,84192
2016-09-28T09:51:16.847Z,79776
2016-09-28T09:52:17.443Z,78112
2016-09-28T09:53:17.110Z,80928
2016-09-28T09:54:17.396Z,81216
2016-09-28T09:55:16.763Z,80480
2016-09-28T09:56:16.440Z,77504
2016-09-28T09:57:17.022Z,71808
2016-09-28T09:58:17.303Z,68288
2016-09-28T09:59:17.275Z,80064
2016-09-28T10:00:16.970Z,86752
2016-09-28T10:01:17.237Z,75520
2016-09-28T10:02:16.613Z,72384
2016-09-28T10:03:16.893Z,72224
2016-09-28T10:04:16.570Z,70080
2016-09-28T10:05:17.148Z,73056
2016-09-28T10:06:16.532Z,74496
2016-09-28T10:07:17.110Z,74240
2016-09-28T10:08:16.784Z,75552
2016-09-28T10:09:16.771Z,76480
2016-09-28T10:10:16.751Z,71328
2016-09-28T10:11:17.026Z,65024
2016-09-28T10:12:17.009Z,58336
2016-09-28T10:13:16.689Z,55616
2016-09-28T10:14:16.971Z,43424
2016-09-28T10:15:16.653Z,37952
2016-09-28T10:16:16.632Z,35616
2016-09-28T10:17:16.914Z,35232
2016-09-28T10:18:16.591Z,34496
2016-09-28T10:19:16.874Z,34336
2016-09-28T10:20:16.855Z,33888
2016-09-28T10:21:16.831Z,33408
2016-09-28T10:22:16.510Z,33248
2016-09-28T10:23:15.902Z,32416
2016-09-28T10:24:16.473Z,32928
2016-09-28T10:25:16.447Z,33088
2016-09-28T10:26:16.132Z,33536
2016-09-28T10:27:16.116Z,33152
2016-09-28T10:28:16.692Z,36320
2016-09-28T10:29:16.377Z,19648
2016-09-28T10:30:16.055Z,37440
2016-09-28T10:31:16.337Z,35328
2016-09-28T10:32:16.324Z,35648
2016-09-28T10:33:16.293Z,16828
2016-09-28T10:34:16.585Z,35648
2016-09-28T10:35:15.958Z,33632
2016-09-28T10:36:16.537Z,32352
2016-09-28T10:37:16.526Z,30880
2016-09-28T10:38:16.201Z,33248
2016-09-28T10:39:16.481Z,31936
2016-09-28T10:40:16.465Z,32704
2016-09-28T10:41:15.535Z,42176
2016-09-28T10:42:16.120Z,64640
2016-09-28T10:43:16.102Z,69504
2016-09-28T10:44:16.385Z,62848
2016-09-28T10:45:16.060Z,68704
2016-09-28T10:46:16.048Z,75456
2016-09-28T10:47:16.022Z,76832
2016-09-28T10:48:15.998Z,77152
2016-09-28T10:49:16.293Z,75328
2016-09-28T10:50:15.961Z,74144
2016-09-28T10:51:16.247Z,75776
2016-09-28T10:52:16.232Z,72096
2016-09-28T10:53:16.207Z,69024
2016-09-28T10:54:15.888Z,65760
2016-09-28T10:55:15.864Z,65056
2016-09-28T10:56:15.848Z,72000
2016-09-28T10:57:15.828Z,71168
2016-09-28T10:58:16.118Z,68192
2016-09-28T10:59:16.082Z,65120
2016-09-28T11:00:15.768Z,63648
2016-09-28T11:01:15.442Z,62368
2016-09-28T11:02:16.026Z,48992
2016-09-28T11:03:15.709Z,35744
2016-09-28T11:04:15.688Z,33088
2016-09-28T11:05:15.664Z,27168
2016-09-28T11:06:15.641Z,22304
2016-09-28T11:07:15.627Z,21280
2016-09-28T11:08:15.303Z,20928
2016-09-28T11:09:15.580Z,20416
2016-09-28T11:10:15.566Z,19968
2016-09-28T11:11:15.850Z,19488
2016-09-28T11:12:15.520Z,19360
2016-09-28T11:13:15.805Z,19072
2016-09-28T11:14:15.479Z,18816
2016-09-28T11:15:15.468Z,18624
2016-09-28T11:16:15.440Z,18240
2016-09-28T11:17:15.419Z,18816
2016-09-28T11:18:15.402Z,18368
2016-09-28T11:19:15.383Z,18240
2016-09-28T11:20:15.351Z,18720
2016-09-28T11:21:15.083Z,29472
2016-09-28T11:22:15.014Z,56288
2016-09-28T11:23:15.287Z,63872
2016-09-28T11:24:15.275Z,46560
2016-09-28T11:25:15.241Z,20128
2016-09-28T11:26:15.219Z,17296
2016-09-28T11:27:15.197Z,17020
2016-09-28T11:28:15.472Z,16752
2016-09-28T11:29:15.148Z,17952
2016-09-28T11:30:15.138Z,17416
2016-09-28T11:31:15.406Z,15540
2016-09-28T11:32:14.476Z,14788
2016-09-28T11:33:15.061Z,14244
2016-09-28T11:34:15.337Z,13680
2016-09-28T11:35:15.311Z,13676
2016-09-28T11:36:14.990Z,13764
2016-09-28T11:37:15.266Z,13436
2016-09-28T11:38:15.257Z,13072
2016-09-28T11:39:15.228Z,12964
2016-09-28T11:40:14.894Z,11996
2016-09-28T11:41:14.869Z,10940
2016-09-28T11:42:14.843Z,10184
2016-09-28T11:43:15.126Z,9976
2016-09-28T11:44:14.792Z,9956
2016-09-28T11:45:14.776Z,9484
2016-09-28T11:46:14.745Z,9400
2016-09-28T11:47:15.021Z,9236
2016-09-28T11:48:15.006Z,8996
2016-09-28T11:49:14.976Z,9560
2016-09-28T11:50:14.643Z,9656
2016-09-28T11:51:14.921Z,9560
2016-09-28T11:52:14.902Z,9148
2016-09-28T11:53:14.579Z,9448
2016-09-28T11:54:14.553Z,9696
2016-09-28T11:55:14.828Z,8716
2016-09-28T11:56:14.189Z,8088
2016-09-28T11:57:14.768Z,10428
2016-09-28T11:58:14.744Z,9652
2016-09-28T11:59:14.413Z,9232
2016-09-28T12:00:14.387Z,8560
2016-09-28T12:01:14.660Z,8860
2016-09-28T12:02:14.331Z,9636
2016-09-28T12:03:14.608Z,9116
2016-09-28T12:04:14.579Z,8608
2016-09-28T12:05:14.558Z,8616
2016-09-28T12:06:14.530Z,8420
2016-09-28T12:07:14.200Z,8080
2016-09-28T12:08:14.176Z,8208
2016-09-28T12:09:14.150Z,8804
2016-09-28T12:10:13.817Z,9064
2016-09-28T12:11:14.402Z,8504
2016-09-28T12:12:14.375Z,8620
2016-09-28T12:13:14.361Z,8580
2016-09-28T12:14:14.321Z,8484
2016-09-28T12:15:14.289Z,8628
2016-09-28T12:16:13.956Z,8788
2016-09-28T12:17:13.932Z,9140
2016-09-28T12:18:14.209Z,8820
2016-09-28T12:19:14.182Z,8660
2016-09-28T12:20:13.551Z,8680
2016-09-28T12:21:14.123Z,8756
2016-09-28T12:22:13.794Z,8880
2016-09-28T12:23:13.773Z,8832
2016-09-28T12:24:14.049Z,8868
2016-09-28T12:25:14.020Z,8872
2016-09-28T12:26:13.690Z,8832
2016-09-28T12:27:13.960Z,9316
2016-09-28T12:28:13.938Z,10068
2016-09-28T12:29:13.606Z,9740
2016-09-28T12:30:13.876Z,9000
2016-09-28T12:31:13.558Z,8564
2016-09-28T12:32:14.052Z,8552
2016-09-28T12:33:12.887Z,8344
2016-09-28T12:34:13.463Z,8260
2016-09-28T12:35:12.836Z,8328
2016-09-28T12:36:13.409Z,8408
2016-09-28T12:37:13.384Z,8264
2016-09-28T12:38:13.658Z,8292
2016-09-28T12:39:13.643Z,8448
2016-09-28T12:40:12.999Z,8392
2016-09-28T12:41:13.581Z,8220
2016-09-28T12:42:13.264Z,8112
2016-09-28T12:43:13.525Z,8036
2016-09-28T12:44:12.888Z,7932
2016-09-28T12:45:13.472Z,7888
2016-09-28T12:46:12.880Z,7748
2016-09-28T12:47:12.814Z,7492
2016-09-28T12:48:13.084Z,7484
2016-09-28T12:49:13.355Z,7600
2016-09-28T12:50:13.025Z,7376
2016-09-28T12:51:13.000Z,7256
2016-09-28T12:52:12.967Z,7220
2016-09-28T12:53:13.259Z,7208
2016-09-28T12:54:12.612Z,7188
2016-09-28T12:55:12.886Z,7180
2016-09-28T12:56:12.866Z,7220
2016-09-28T12:57:12.529Z,7188
2016-09-28T12:58:13.105Z,7188
2016-09-28T12:59:12.776Z,7100
2016-09-28T13:00:13.064Z,6980
2016-09-28T13:01:12.724Z,7072
2016-09-28T13:02:12.702Z,7188
2016-09-28T13:03:12.670Z,7244
2016-09-28T13:04:12.638Z,7208
2016-09-28T13:05:12.615Z,7268
2016-09-28T13:06:12.895Z,7324
2016-09-28T13:07:12.249Z,7388
2016-09-28T13:08:12.530Z,7524
2016-09-28T13:09:12.816Z,7556
2016-09-28T13:10:12.463Z,7524
2016-09-28T13:11:12.751Z,7512
2016-09-28T13:12:12.718Z,7508
2016-09-28T13:13:12.098Z,7408
2016-09-28T13:14:12.654Z,7296
2016-09-28T13:15:12.637Z,7324
2016-09-28T13:16:12.304Z,7368
2016-09-28T13:17:12.577Z,7372
2016-09-28T13:18:11.944Z,7400
2016-09-28T13:19:12.522Z,7360
2016-09-28T13:20:12.188Z,7396
2016-09-28T13:21:12.162Z,7404
2016-09-28T13:22:12.135Z,7264
2016-09-28T13:23:12.103Z,7284
2016-09-28T13:24:12.077Z,7124
2016-09-28T13:25:11.754Z,7136
2016-09-28T13:26:12.320Z,7028
2016-09-28T13:27:11.696Z,7316
2016-09-28T13:28:12.269Z,7320
2016-09-28T13:29:12.251Z,7304
2016-09-28T13:30:11.919Z,7236
2016-09-28T13:31:12.187Z,7264
2016-09-28T13:32:12.155Z,7264
2016-09-28T13:33:12.130Z,7156
2016-09-28T13:34:12.104Z,7140
2016-09-28T13:35:11.772Z,7128
2016-09-28T13:36:11.747Z,7152
2016-09-28T13:37:11.715Z,7240
2016-09-28T13:38:11.683Z,7160
2016-09-28T13:39:12.714Z,7168
2016-09-28T13:40:11.643Z,7192
2016-09-28T13:41:11.901Z,7248
2016-09-28T13:42:11.573Z,7280
2016-09-28T13:43:11.548Z,7240
2016-09-28T13:44:11.822Z,7144